Pagrindinis puslapis
METAR-TAF:

METAR-TAF

Oro uostai :

Alpnach, Šveicarija

platuma: 46-56-19N, ilguma: 8-17-03E, Aukštis: 440 m

Dabartinis oras

Ataskaita buvo paskelbta 38 minutes, ne 16:20 UTC
Vėjas 7 kt iš Šiaurės Rytų
Temperatūra 4°C
Drėgmė 70%
Slėgis 995 hPa
Matomumas 10 km arba daugiau
Apsiniaukę ne aukštis 9000 ft

METAR: LSMA 231620Z AUTO 05007KT 9999NDV OVC090 04/M01 Q0995 RMK

Laikas: 17:58 (16:58 UTC)


TAF: trūkstamas

Orai ataskaitas ir orų prognozės (METAR, TAF).

turimą stotys yra geltonos ir raudonos taškus žemėlapyje.

Perkelti pele per norėdami pamatyti stoties vardą.

Tada spustelėkite, norėdami matyti oro stebėjimo ir prognozės.

Norėdami pakeisti žemėlapį: spustelėkite ant žalios mygtukų su juodo kryžiaus žemyn,; žalią mygtuką su brūkšneliu, jei norite nutolinti; arba žalių rodyklių gretimoms žemėlapius.


METAR-TAF: